Time;durP1;ratioP1;P1;durP2;ratioP2;P2;SDS_P1;SDS_P2;PMS_P1;PMS_P2;Temp;Humidity;BMP_temperature;BMP_pressure;BME280_temperature;BME280_humidity;BME280_pressure;Samples;Min_cycle;Max_cycle;Signal;HPM_P1;HPM_P2
2023/10/29 00:00:29;;;;;;;;;;;;;;;12.13;100.00;99263.06;5095332;27;19966;-73
2023/10/29 00:02:54;;;;;;;;;;;;;;;12.31;100.00;99270.34;5083215;27;19966;-73
2023/10/29 00:05:20;;;;;;;;;;;;;;;12.20;100.00;99252.66;5098239;27;19963;-73
2023/10/29 00:07:46;;;;;;;;;;;;;;;12.24;100.00;99246.00;5096006;27;19924;-73
2023/10/29 00:10:11;;;;;;;;;;;;;;;12.30;100.00;99248.13;5098428;27;20801;-73
2023/10/29 00:12:37;;;;;;;;;;;;;;;12.37;100.00;99243.84;5097473;27;20233;-73
2023/10/29 00:15:03;;;;;;;;;;;;;;;12.38;100.00;99221.47;5092114;27;20835;-73
2023/10/29 00:17:28;;;;;;;;;;;;;;;12.38;100.00;99220.63;5096597;27;20034;-73
2023/10/29 00:19:54;;;;;;;;;;;;;;;12.41;100.00;99213.16;5094046;27;20689;-73
2023/10/29 00:22:20;;;;;;;;;;;;;;;12.40;100.00;99216.84;5092355;27;19923;-73
2023/10/29 00:24:45;;;;;;;;;;;;;;;12.47;100.00;99205.53;5100330;27;20571;-73
2023/10/29 00:27:12;;;;;;;;;;;;;;;12.40;100.00;99200.78;5094409;27;19963;-73
2023/10/29 00:29:38;;;;;;;;;;;;;;;12.48;100.00;99194.69;5094651;27;19924;-73
2023/10/29 00:32:03;;;;;;;;;;;;;;;12.47;100.00;99189.50;5107901;27;20648;-73
2023/10/29 00:34:29;;;;;;;;;;;;;;;12.46;100.00;99185.16;5081197;27;19931;-73
2023/10/29 00:36:54;;;;;;;;;;;;;;;12.55;100.00;99179.75;5094230;27;20296;-72
2023/10/29 00:39:19;;;;;;;;;;;;;;;12.55;100.00;99177.06;5105104;27;19982;-73
2023/10/29 00:41:45;;;;;;;;;;;;;;;12.51;100.00;99186.38;5103046;27;19960;-73
2023/10/29 00:44:10;;;;;;;;;;;;;;;12.52;100.00;99182.69;5093114;27;19974;-74
2023/10/29 00:46:39;;;;;;;;;;;;;;;12.55;100.00;99186.88;5084037;27;20747;-73
2023/10/29 00:49:06;;;;;;;;;;;;;;;12.45;100.00;99176.28;5101776;27;19982;-73
2023/10/29 00:51:31;;;;;;;;;;;;;;;12.58;100.00;99155.34;5108981;27;19930;-73
2023/10/29 00:53:57;;;;;;;;;;;;;;;12.55;100.00;99149.47;5094102;27;19927;-73
2023/10/29 00:56:22;;;;;;;;;;;;;;;12.61;100.00;99144.38;5095732;27;19924;-73
2023/10/29 00:58:48;;;;;;;;;;;;;;;12.61;100.00;99138.19;5105591;27;20439;-72
2023/10/29 01:01:13;;;;;;;;;;;;;;;12.51;100.00;99135.56;5101231;27;19924;-73
2023/10/29 01:03:38;;;;;;;;;;;;;;;12.54;100.00;99127.22;5077090;27;20008;-73
2023/10/29 01:06:04;;;;;;;;;;;;;;;12.63;100.00;99133.50;5098265;27;19924;-73
2023/10/29 01:08:30;;;;;;;;;;;;;;;12.66;100.00;99128.69;5094128;27;19924;-73
2023/10/29 01:10:56;;;;;;;;;;;;;;;12.66;100.00;99130.53;5080941;27;19935;-73
2023/10/29 01:13:21;;;;;;;;;;;;;;;12.64;100.00;99119.97;5077378;27;19931;-73
2023/10/29 01:15:47;;;;;;;;;;;;;;;12.61;100.00;99120.28;5094926;27;19923;-74
2023/10/29 01:18:15;;;;;;;;;;;;;;;12.65;100.00;99105.63;5068774;27;19920;-72
2023/10/29 01:20:41;;;;;;;;;;;;;;;12.58;100.00;99109.91;5100858;27;19974;-73
2023/10/29 01:23:06;;;;;;;;;;;;;;;12.74;100.00;99114.53;5095148;27;19920;-73
2023/10/29 01:25:31;;;;;;;;;;;;;;;12.73;100.00;99094.16;5101373;27;19927;-73
2023/10/29 01:27:59;;;;;;;;;;;;;;;12.72;100.00;99092.47;5099590;27;20269;-73
2023/10/29 01:30:25;;;;;;;;;;;;;;;12.71;100.00;99080.09;5081018;27;19928;-72
2023/10/29 01:32:50;;;;;;;;;;;;;;;12.81;100.00;99074.66;5092192;27;19931;-73
2023/10/29 01:35:16;;;;;;;;;;;;;;;12.88;100.00;99062.34;5077663;27;20371;-73
2023/10/29 01:37:41;;;;;;;;;;;;;;;12.82;100.00;99060.28;5080421;27;19924;-73
2023/10/29 01:40:07;;;;;;;;;;;;;;;12.90;100.00;99047.84;5103467;27;19924;-73
2023/10/29 01:42:32;;;;;;;;;;;;;;;12.92;100.00;99053.00;5101418;27;19920;-73
2023/10/29 01:44:58;;;;;;;;;;;;;;;12.90;100.00;99047.84;5118463;27;19966;-73
2023/10/29 01:47:23;;;;;;;;;;;;;;;12.79;100.00;99042.72;5094741;27;19928;-73
2023/10/29 01:49:48;;;;;;;;;;;;;;;12.80;100.00;99028.38;5098757;27;19939;-73
2023/10/29 01:52:14;;;;;;;;;;;;;;;12.99;100.00;99026.47;5076697;27;19920;-73
2023/10/29 01:54:40;;;;;;;;;;;;;;;12.99;100.00;99021.94;5085753;27;19955;-73
2023/10/29 01:57:06;;;;;;;;;;;;;;;13.02;100.00;99023.47;5079522;27;19924;-73
2023/10/29 01:59:35;;;;;;;;;;;;;;;12.87;100.00;99025.88;5079068;27;19924;-74
2023/10/29 02:02:00;;;;;;;;;;;;;;;12.74;100.00;99031.63;5093461;27;19969;-73
2023/10/29 02:04:26;;;;;;;;;;;;;;;12.81;100.00;99032.72;5087096;27;20854;-73
2023/10/29 02:06:55;;;;;;;;;;;;;;;12.76;100.00;99037.69;5110227;27;20389;-73
2023/10/29 02:09:20;;;;;;;;;;;;;;;12.75;100.00;99036.00;5078775;28;19928;-73
2023/10/29 02:11:46;;;;;;;;;;;;;;;12.76;100.00;99018.97;5078902;28;19928;-73
2023/10/29 02:14:11;;;;;;;;;;;;;;;12.61;100.00;99020.53;5081511;27;19920;-73
2023/10/29 02:16:38;;;;;;;;;;;;;;;12.66;100.00;99034.25;5074263;28;19924;-73
2023/10/29 02:19:03;;;;;;;;;;;;;;;12.68;100.00;99027.75;5078102;27;20721;-73
2023/10/29 02:21:29;;;;;;;;;;;;;;;12.77;100.00;99028.66;5083087;27;19920;-73
2023/10/29 02:23:54;;;;;;;;;;;;;;;12.80;100.00;99019.47;5083360;27;19927;-73
2023/10/29 02:26:21;;;;;;;;;;;;;;;12.86;100.00;99000.97;5083030;28;19970;-73
2023/10/29 02:28:46;;;;;;;;;;;;;;;12.89;100.00;98991.78;5080103;27;19928;-73
2023/10/29 02:31:30;;;;;;;;;;;;;;;12.95;100.00;98997.38;5091371;27;19927;-73
2023/10/29 02:33:56;;;;;;;;;;;;;;;12.90;100.00;99020.22;5079145;27;20001;-73
2023/10/29 02:36:22;;;;;;;;;;;;;;;12.93;100.00;99007.38;5085263;27;20312;-73
2023/10/29 02:38:48;;;;;;;;;;;;;;;12.93;100.00;99004.69;5086121;28;19926;-73
2023/10/29 02:41:13;;;;;;;;;;;;;;;12.92;100.00;99000.34;5081306;27;19931;-73
2023/10/29 02:43:40;;;;;;;;;;;;;;;12.90;100.00;98993.47;5079029;28;19943;-73
2023/10/29 02:46:05;;;;;;;;;;;;;;;12.92;100.00;98981.63;5082824;28;20040;-73
2023/10/29 02:48:30;;;;;;;;;;;;;;;12.92;100.00;98995.00;5082703;28;20730;-73
2023/10/29 02:50:56;;;;;;;;;;;;;;;13.00;100.00;98996.88;5114843;27;19924;-73
2023/10/29 02:53:21;;;;;;;;;;;;;;;13.00;100.00;99002.22;5081652;27;19924;-73
2023/10/29 02:55:48;;;;;;;;;;;;;;;13.04;100.00;98986.69;5079228;28;19926;-73
2023/10/29 02:58:13;;;;;;;;;;;;;;;13.06;100.00;98987.38;5091652;27;19958;-73
2023/10/29 03:00:39;;;;;;;;;;;;;;;13.17;100.00;98982.59;5083299;27;19997;-73
2023/10/29 03:03:05;;;;;;;;;;;;;;;13.04;100.00;98960.78;5091575;27;19940;-73
2023/10/29 03:05:30;;;;;;;;;;;;;;;13.25;100.00;98980.97;5077150;27;20956;-73
2023/10/29 03:07:56;;;;;;;;;;;;;;;13.25;100.00;98964.91;5095548;27;19935;-73
2023/10/29 03:10:25;;;;;;;;;;;;;;;13.34;100.00;98956.75;5096544;27;19959;-73
2023/10/29 03:12:50;;;;;;;;;;;;;;;13.35;100.00;98969.13;5106621;27;21457;-73
2023/10/29 03:15:16;;;;;;;;;;;;;;;13.37;100.00;98959.13;5098340;27;19963;-73
2023/10/29 03:17:41;;;;;;;;;;;;;;;13.39;100.00;98961.63;5097786;27;19946;-73
2023/10/29 03:20:07;;;;;;;;;;;;;;;13.46;100.00;98958.16;5105545;27;19919;-73
2023/10/29 03:22:33;;;;;;;;;;;;;;;13.44;100.00;98962.81;5115771;27;19998;-73
2023/10/29 03:24:58;;;;;;;;;;;;;;;13.45;100.00;98951.13;5096964;27;19958;-73
2023/10/29 03:27:25;;;;;;;;;;;;;;;13.43;100.00;98963.81;5100338;27;19924;-73
2023/10/29 03:29:50;;;;;;;;;;;;;;;13.51;100.00;98959.53;5100439;27;19924;-73
2023/10/29 03:32:16;;;;;;;;;;;;;;;13.39;100.00;98953.59;5119760;27;19954;-73
2023/10/29 03:34:42;;;;;;;;;;;;;;;13.44;100.00;98956.63;5097539;27;20770;-73
2023/10/29 03:37:10;;;;;;;;;;;;;;;13.43;100.00;98945.09;5098473;27;19935;-73
2023/10/29 03:39:35;;;;;;;;;;;;;;;13.40;100.00;98945.44;5103896;27;19923;-74
2023/10/29 03:42:02;;;;;;;;;;;;;;;13.32;100.00;98948.06;5103596;27;19920;-73
2023/10/29 03:44:28;;;;;;;;;;;;;;;13.29;100.00;98951.06;5106372;27;19946;-73
2023/10/29 03:46:53;;;;;;;;;;;;;;;13.19;100.00;98955.66;5115459;27;19950;-74
2023/10/29 03:49:18;;;;;;;;;;;;;;;13.20;100.00;98970.72;5101244;27;19975;-73
2023/10/29 03:51:45;;;;;;;;;;;;;;;13.29;100.00;98966.28;5084047;27;20373;-73
2023/10/29 03:54:10;;;;;;;;;;;;;;;13.31;100.00;98970.47;5084450;27;19920;-73
2023/10/29 03:56:36;;;;;;;;;;;;;;;13.38;100.00;98968.00;5098099;27;19935;-73
2023/10/29 03:59:05;;;;;;;;;;;;;;;13.39;100.00;98954.44;5097833;27;19927;-73
2023/10/29 04:01:31;;;;;;;;;;;;;;;13.56;100.00;98933.09;5098510;27;20039;-73
2023/10/29 04:03:57;;;;;;;;;;;;;;;13.56;100.00;98944.63;5087792;27;19969;-73
2023/10/29 04:06:22;;;;;;;;;;;;;;;13.50;100.00;98947.94;5097007;27;20410;-73
2023/10/29 04:08:48;;;;;;;;;;;;;;;13.46;100.00;98942.09;5098029;27;19920;-73
2023/10/29 04:11:13;;;;;;;;;;;;;;;13.44;100.00;98927.19;5097121;27;19985;-73
2023/10/29 04:13:39;;;;;;;;;;;;;;;13.35;100.00;98939.69;5083120;27;20002;-73
2023/10/29 04:16:04;;;;;;;;;;;;;;;13.29;100.00;98950.22;5104667;27;19924;-73
2023/10/29 04:18:33;;;;;;;;;;;;;;;13.22;100.00;98955.38;5099553;27;20678;-73
2023/10/29 04:21:01;;;;;;;;;;;;;;;13.14;100.00;98956.13;5097698;27;19924;-73
2023/10/29 04:23:27;;;;;;;;;;;;;;;13.15;100.00;98960.50;5090564;27;19920;-73
2023/10/29 04:25:52;;;;;;;;;;;;;;;13.17;100.00;98937.09;5113919;27;19935;-74
2023/10/29 04:28:18;;;;;;;;;;;;;;;13.23;100.00;98962.41;5097964;27;19951;-73
2023/10/29 04:30:43;;;;;;;;;;;;;;;13.18;100.00;98968.22;5099564;27;19924;-73
2023/10/29 04:33:08;;;;;;;;;;;;;;;13.09;100.00;98961.13;5097692;27;19924;-73
2023/10/29 04:35:34;;;;;;;;;;;;;;;13.11;100.00;98958.31;5086997;27;20091;-73
2023/10/29 04:37:59;;;;;;;;;;;;;;;13.09;100.00;98973.69;5119312;27;19932;-73
2023/10/29 04:40:24;;;;;;;;;;;;;;;12.98;100.00;98969.44;5086050;27;19920;-73
2023/10/29 04:42:49;;;;;;;;;;;;;;;12.99;100.00;98978.31;5096613;27;19931;-73
2023/10/29 04:45:15;;;;;;;;;;;;;;;13.00;100.00;98990.69;5103417;27;19974;-75
2023/10/29 04:47:40;;;;;;;;;;;;;;;13.02;100.00;98986.84;5103122;27;19924;-73
2023/10/29 04:50:06;;;;;;;;;;;;;;;13.02;100.00;98988.69;5096230;27;19924;-73
2023/10/29 04:52:32;;;;;;;;;;;;;;;12.99;100.00;98997.88;5100620;27;19927;-73
2023/10/29 04:54:57;;;;;;;;;;;;;;;13.11;100.00;99009.16;5101507;27;19935;-73
2023/10/29 04:57:22;;;;;;;;;;;;;;;13.16;100.00;98996.97;5097660;27;19993;-73
2023/10/29 04:59:48;;;;;;;;;;;;;;;13.21;100.00;99004.53;5083350;27;19927;-74
2023/10/29 05:02:15;;;;;;;;;;;;;;;13.16;100.00;98990.78;5102301;27;19924;-74
2023/10/29 05:04:41;;;;;;;;;;;;;;;13.21;100.00;98992.03;5100455;27;19924;-73
2023/10/29 05:07:08;;;;;;;;;;;;;;;13.23;100.00;98982.97;5097668;27;19931;-73
2023/10/29 05:09:33;;;;;;;;;;;;;;;13.25;100.00;98973.78;5084334;27;19924;-73
2023/10/29 05:11:59;;;;;;;;;;;;;;;13.29;100.00;98979.66;5096776;27;19920;-73
2023/10/29 05:14:26;;;;;;;;;;;;;;;13.25;100.00;98978.28;5095454;27;30047;-73
2023/10/29 05:16:52;;;;;;;;;;;;;;;13.25;100.00;98979.13;5098157;27;19927;-73
2023/10/29 05:19:17;;;;;;;;;;;;;;;13.24;100.00;98969.44;5114172;27;19935;-74
2023/10/29 05:21:43;;;;;;;;;;;;;;;13.28;100.00;98975.31;5100225;27;20380;-73
2023/10/29 05:24:09;;;;;;;;;;;;;;;13.26;100.00;98951.38;5082110;27;19973;-73
2023/10/29 05:26:36;;;;;;;;;;;;;;;13.15;100.00;98965.88;5080635;27;20316;-73
2023/10/29 05:29:03;;;;;;;;;;;;;;;13.14;100.00;98964.16;5085837;27;19920;-74
2023/10/29 05:31:29;;;;;;;;;;;;;;;13.23;100.00;98974.94;5099236;27;20067;-73
2023/10/29 05:33:54;;;;;;;;;;;;;;;13.20;100.00;98995.66;5100226;27;19928;-73
2023/10/29 05:36:20;;;;;;;;;;;;;;;13.25;100.00;98995.19;5080924;27;19924;-73
2023/10/29 05:38:45;;;;;;;;;;;;;;;13.19;100.00;98996.66;5084269;27;19949;-73
2023/10/29 05:41:11;;;;;;;;;;;;;;;13.19;100.00;99007.34;5096971;27;19920;-73
2023/10/29 05:43:37;;;;;;;;;;;;;;;13.20;100.00;99001.03;5107887;27;19961;-73
2023/10/29 05:46:02;;;;;;;;;;;;;;;13.19;100.00;99019.91;5096936;27;19924;-73
2023/10/29 05:48:28;;;;;;;;;;;;;;;13.15;100.00;99023.88;5097313;27;20010;-73
2023/10/29 05:50:53;;;;;;;;;;;;;;;13.04;100.00;99042.88;5095823;27;19946;-73
2023/10/29 05:53:18;;;;;;;;;;;;;;;12.89;100.00;99040.78;5100388;27;19928;-73
2023/10/29 05:55:44;;;;;;;;;;;;;;;12.91;100.00;99033.44;5111842;27;20214;-73
2023/10/29 05:58:09;;;;;;;;;;;;;;;12.60;100.00;99035.72;5103988;27;19924;-73
2023/10/29 06:00:34;;;;;;;;;;;;;;;12.49;100.00;99008.38;5084505;27;19920;-73
2023/10/29 06:03:00;;;;;;;;;;;;;;;12.33;100.00;99009.91;5098083;27;20034;-73
2023/10/29 06:05:26;;;;;;;;;;;;;;;12.25;100.00;99006.31;5100894;27;19928;-73
2023/10/29 06:07:51;;;;;;;;;;;;;;;12.24;100.00;99028.69;5097793;27;19923;-73
2023/10/29 06:10:17;;;;;;;;;;;;;;;12.15;100.00;99041.16;5102625;27;19931;-73
2023/10/29 06:12:43;;;;;;;;;;;;;;;12.22;100.00;99071.63;5099961;27;19924;-74
2023/10/29 06:15:09;;;;;;;;;;;;;;;12.33;100.00;99083.91;5099592;27;20397;-73
2023/10/29 06:17:34;;;;;;;;;;;;;;;12.35;100.00;99101.50;5099880;27;19931;-73
2023/10/29 06:20:02;;;;;;;;;;;;;;;12.44;100.00;99094.38;5098461;27;20538;-73
2023/10/29 06:22:27;;;;;;;;;;;;;;;12.46;100.00;99076.38;5082432;27;20373;-73
2023/10/29 06:24:53;;;;;;;;;;;;;;;12.41;100.00;99092.03;5096540;27;19931;-73
2023/10/29 06:27:18;;;;;;;;;;;;;;;12.46;100.00;99103.09;5096663;27;19924;-73
2023/10/29 06:29:44;;;;;;;;;;;;;;;12.38;100.00;99100.34;5096309;27;19924;-75
2023/10/29 06:32:09;;;;;;;;;;;;;;;12.39;100.00;99104.69;5100230;27;20744;-72
2023/10/29 06:34:38;;;;;;;;;;;;;;;12.35;100.00;99101.50;5119258;27;19992;-76
2023/10/29 06:37:03;;;;;;;;;;;;;;;12.36;100.00;99115.69;5102730;27;19946;-73
2023/10/29 06:39:28;;;;;;;;;;;;;;;12.34;100.00;99115.00;5095144;27;20498;-73
2023/10/29 06:41:54;;;;;;;;;;;;;;;12.35;100.00;99125.56;5094941;27;19931;-73
2023/10/29 06:44:19;;;;;;;;;;;;;;;12.28;100.00;99120.94;5098904;27;19982;-73
2023/10/29 06:46:45;;;;;;;;;;;;;;;12.16;100.00;99118.50;5098541;27;19920;-73
2023/10/29 06:49:11;;;;;;;;;;;;;;;12.16;100.00;99120.31;5102764;27;31433;-73
2023/10/29 06:51:36;;;;;;;;;;;;;;;12.16;100.00;99133.69;5100912;27;19931;-73
2023/10/29 06:54:02;;;;;;;;;;;;;;;12.21;100.00;99135.91;5096155;27;20134;-73
2023/10/29 06:56:27;;;;;;;;;;;;;;;12.15;100.00;99134.69;5098838;27;19923;-73
2023/10/29 06:58:53;;;;;;;;;;;;;;;12.14;100.00;99141.00;5096535;27;19920;-73
2023/10/29 07:01:18;;;;;;;;;;;;;;;12.13;100.00;99152.69;5095944;27;19924;-73
2023/10/29 07:03:44;;;;;;;;;;;;;;;12.07;100.00;99147.94;5097524;27;19942;-73
2023/10/29 07:06:10;;;;;;;;;;;;;;;12.08;100.00;99161.13;5095182;27;20815;-73
2023/10/29 07:08:36;;;;;;;;;;;;;;;12.07;100.00;99163.97;5111183;27;19924;-73
2023/10/29 07:11:03;;;;;;;;;;;;;;;12.01;100.00;99180.59;5100493;27;19927;-74
2023/10/29 07:13:29;;;;;;;;;;;;;;;12.12;100.00;99177.72;5098331;27;19919;-73
2023/10/29 07:15:55;;;;;;;;;;;;;;;12.09;100.00;99189.53;5120582;27;19924;-73
2023/10/29 07:18:20;;;;;;;;;;;;;;;12.20;100.00;99183.19;5104022;27;19920;-73
2023/10/29 07:20:46;;;;;;;;;;;;;;;12.33;100.00;99174.78;5096235;27;20010;-73
2023/10/29 07:23:12;;;;;;;;;;;;;;;12.43;100.00;99172.91;5100744;27;19919;-74
2023/10/29 07:25:37;;;;;;;;;;;;;;;12.43;100.00;99181.75;5080565;27;20432;-73
2023/10/29 07:28:02;;;;;;;;;;;;;;;12.42;100.00;99188.09;5081385;27;19927;-73
2023/10/29 07:30:28;;;;;;;;;;;;;;;12.47;100.00;99184.97;5082133;27;20039;-73
2023/10/29 07:32:53;;;;;;;;;;;;;;;12.42;100.00;99192.63;5100750;27;19919;-73
2023/10/29 07:35:18;;;;;;;;;;;;;;;12.59;100.00;99202.47;5084565;27;20679;-73
2023/10/29 07:37:51;;;;;;;;;;;;;;;12.54;100.00;99188.72;5076990;27;19991;-73
2023/10/29 07:40:17;;;;;;;;;;;;;;;12.55;100.00;99192.25;5064310;27;19916;-73
2023/10/29 07:42:45;;;;;;;;;;;;;;;12.68;100.00;99188.22;5095598;27;20030;-73
2023/10/29 07:45:11;;;;;;;;;;;;;;;12.67;100.00;99186.53;5115402;27;20047;-74
2023/10/29 07:47:36;;;;;;;;;;;;;;;12.69;100.00;99205.09;5103719;27;19993;-73
2023/10/29 07:50:02;;;;;;;;;;;;;;;12.73;100.00;99208.31;5102975;27;19992;-73
2023/10/29 07:52:27;;;;;;;;;;;;;;;12.78;100.00;99216.72;5082877;27;19974;-73
2023/10/29 07:54:53;;;;;;;;;;;;;;;12.77;100.00;99213.22;5101104;27;20035;-73
2023/10/29 07:57:18;;;;;;;;;;;;;;;12.85;100.00;99221.34;5104291;27;20051;-73
2023/10/29 07:59:43;;;;;;;;;;;;;;;12.82;100.00;99213.59;5111071;27;19927;-73
2023/10/29 08:02:09;;;;;;;;;;;;;;;12.90;100.00;99223.53;5106467;27;19926;-73
2023/10/29 08:04:34;;;;;;;;;;;;;;;12.98;100.00;99228.13;5099789;27;19923;-73
2023/10/29 08:07:00;;;;;;;;;;;;;;;13.07;100.00;99229.91;5097952;27;19928;-73
2023/10/29 08:09:28;;;;;;;;;;;;;;;13.23;100.00;99221.22;5097796;27;19935;-74
2023/10/29 08:11:54;;;;;;;;;;;;;;;13.32;100.00;99218.44;5099878;27;20833;-73
2023/10/29 08:14:19;;;;;;;;;;;;;;;13.55;100.00;99212.59;5099600;27;19924;-73
2023/10/29 08:16:44;;;;;;;;;;;;;;;13.72;100.00;99209.03;5113287;27;19976;-74
2023/10/29 08:19:10;;;;;;;;;;;;;;;14.03;100.00;99205.88;5102649;27;20222;-73
2023/10/29 08:21:36;;;;;;;;;;;;;;;14.14;100.00;99202.91;5096234;27;19920;-73
2023/10/29 08:24:01;;;;;;;;;;;;;;;14.11;100.00;99205.91;5083428;27;19920;-73
2023/10/29 08:26:28;;;;;;;;;;;;;;;14.28;100.00;99201.47;5101434;27;20035;-73
2023/10/29 08:28:54;;;;;;;;;;;;;;;14.34;100.00;99207.00;5105209;27;19971;-73
2023/10/29 08:31:19;;;;;;;;;;;;;;;14.37;100.00;99208.53;5087506;27;19934;-74
2023/10/29 08:33:45;;;;;;;;;;;;;;;14.10;100.00;99202.38;5095700;27;20084;-73
2023/10/29 08:36:10;;;;;;;;;;;;;;;14.16;100.00;99201.75;5100837;27;19926;-73
2023/10/29 08:38:36;;;;;;;;;;;;;;;14.26;100.00;99207.00;5097515;27;19931;-73
2023/10/29 08:41:11;;;;;;;;;;;;;;;14.35;100.00;99213.22;5098879;27;20014;-73
2023/10/29 08:43:36;;;;;;;;;;;;;;;14.44;100.00;99213.06;5089738;27;19923;-74
2023/10/29 08:46:02;;;;;;;;;;;;;;;14.54;100.00;99222.88;5107332;27;19920;-73
2023/10/29 08:48:27;;;;;;;;;;;;;;;14.26;100.00;99225.75;5113906;27;19931;-73
2023/10/29 08:50:53;;;;;;;;;;;;;;;14.14;100.00;99227.03;5096632;27;20041;-73
2023/10/29 08:53:18;;;;;;;;;;;;;;;13.96;100.00;99236.00;5116356;27;19919;-73
2023/10/29 08:55:47;;;;;;;;;;;;;;;14.13;100.00;99231.53;5102528;27;19920;-73
2023/10/29 08:58:15;;;;;;;;;;;;;;;14.38;100.00;99235.19;5116451;27;19928;-74
2023/10/29 09:00:40;;;;;;;;;;;;;;;14.61;100.00;99238.16;5105350;27;20453;-73
2023/10/29 09:03:06;;;;;;;;;;;;;;;14.69;100.00;99223.91;5099433;27;20692;-73
2023/10/29 09:05:31;;;;;;;;;;;;;;;14.76;100.00;99231.16;5088567;27;20052;-73
2023/10/29 09:07:57;;;;;;;;;;;;;;;14.98;100.00;99243.13;5093103;27;20765;-73
2023/10/29 09:10:22;;;;;;;;;;;;;;;15.06;100.00;99247.69;5095018;27;19993;-73
2023/10/29 09:12:48;;;;;;;;;;;;;;;15.16;100.00;99258.25;5090131;27;20432;-74
2023/10/29 09:15:15;;;;;;;;;;;;;;;14.80;100.00;99266.56;5115170;27;20801;-73
2023/10/29 09:17:40;;;;;;;;;;;;;;;14.84;100.00;99261.69;5108447;27;19978;-73
2023/10/29 09:20:06;;;;;;;;;;;;;;;14.90;100.00;99267.25;5091680;27;19927;-74
2023/10/29 09:22:32;;;;;;;;;;;;;;;15.01;100.00;99271.50;5097937;27;19970;-74
2023/10/29 09:24:58;;;;;;;;;;;;;;;15.03;100.00;99288.25;5098536;27;20010;-73
2023/10/29 09:27:23;;;;;;;;;;;;;;;14.90;100.00;99283.34;5075250;27;20048;-73
2023/10/29 09:29:49;;;;;;;;;;;;;;;15.07;100.00;99288.78;5095923;27;19931;-73
2023/10/29 09:32:15;;;;;;;;;;;;;;;15.27;100.00;99296.38;5094852;27;20028;-73
2023/10/29 09:34:40;;;;;;;;;;;;;;;15.36;100.00;99301.75;5098449;27;19951;-74
2023/10/29 09:37:05;;;;;;;;;;;;;;;15.66;100.00;99297.59;5100874;27;19978;-73
2023/10/29 09:39:31;;;;;;;;;;;;;;;15.60;100.00;99298.25;5086379;27;19956;-73
2023/10/29 09:42:01;;;;;;;;;;;;;;;15.16;100.00;99296.69;5077782;27;19927;-73
2023/10/29 09:44:29;;;;;;;;;;;;;;;15.33;100.00;99296.72;5076789;27;19924;-73
2023/10/29 09:47:01;;;;;;;;;;;;;;;15.34;100.00;99312.66;5097209;27;19946;-73
2023/10/29 09:49:26;;;;;;;;;;;;;;;15.47;100.00;99296.91;5080775;28;19923;-73
2023/10/29 09:51:51;;;;;;;;;;;;;;;15.43;100.00;99286.66;5097507;27;19919;-73
2023/10/29 09:54:17;;;;;;;;;;;;;;;15.42;100.00;99298.41;5098403;27;19928;-73
2023/10/29 09:56:42;;;;;;;;;;;;;;;15.21;100.00;99299.72;5099808;27;19958;-74
2023/10/29 09:59:08;;;;;;;;;;;;;;;15.27;100.00;99290.16;5097821;27;20827;-74
2023/10/29 10:01:33;;;;;;;;;;;;;;;15.48;100.00;99292.38;5092152;27;19970;-73
2023/10/29 10:04:08;;;;;;;;;;;;;;;15.69;100.00;99291.91;5092756;27;19920;-73
2023/10/29 10:06:34;;;;;;;;;;;;;;;15.78;100.00;99318.59;5093814;27;19924;-74
2023/10/29 10:09:00;;;;;;;;;;;;;;;15.94;100.00;99300.78;5098193;27;20416;-74
2023/10/29 10:11:25;;;;;;;;;;;;;;;15.89;100.00;99312.06;5093654;27;19928;-74
2023/10/29 10:13:50;;;;;;;;;;;;;;;15.51;100.00;99298.25;5085589;27;19920;-73
2023/10/29 10:16:16;;;;;;;;;;;;;;;15.38;100.00;99289.00;5092347;27;20202;-73
2023/10/29 10:18:52;;;;;;;;;;;;;;;15.26;100.00;99301.88;5079655;27;19927;-74
2023/10/29 10:21:20;;;;;;;;;;;;;;;15.36;100.00;99304.44;5109905;27;20026;-75
2023/10/29 10:23:49;;;;;;;;;;;;;;;15.14;100.00;99304.06;5101380;27;19920;-74
2023/10/29 10:26:18;;;;;;;;;;;;;;;15.08;100.00;99291.31;5081763;27;20025;-73
2023/10/29 10:28:53;;;;;;;;;;;;;;;15.13;100.00;99274.69;5082491;27;19924;-73
2023/10/29 10:31:19;;;;;;;;;;;;;;;15.10;100.00;99264.28;5098846;27;20283;-73
2023/10/29 10:33:44;;;;;;;;;;;;;;;15.15;100.00;99281.56;5098715;27;20490;-74
2023/10/29 10:36:10;;;;;;;;;;;;;;;15.30;100.00;99281.75;5116112;27;20025;-73
2023/10/29 10:38:50;;;;;;;;;;;;;;;15.49;100.00;99286.81;5100490;27;20086;-73
2023/10/29 10:41:15;;;;;;;;;;;;;;;15.57;100.00;99283.31;5101966;27;19973;-75
2023/10/29 10:43:40;;;;;;;;;;;;;;;15.52;100.00;99288.34;5101918;27;20110;-75
2023/10/29 10:46:07;;;;;;;;;;;;;;;15.41;100.00;99291.34;5095807;27;19924;-75
2023/10/29 10:48:34;;;;;;;;;;;;;;;15.25;100.00;99282.25;5098688;27;19920;-76
2023/10/29 10:51:01;;;;;;;;;;;;;;;15.29;100.00;99283.59;5098574;27;20930;-76
2023/10/29 10:53:26;;;;;;;;;;;;;;;15.41;100.00;99277.91;5084701;27;19973;-74
2023/10/29 10:55:53;;;;;;;;;;;;;;;15.42;100.00;99283.13;5105798;27;20001;-73
2023/10/29 10:58:18;;;;;;;;;;;;;;;15.23;100.00;99291.50;5099504;27;19920;-75
2023/10/29 11:00:44;;;;;;;;;;;;;;;15.23;100.00;99294.19;5091052;27;19963;-73
2023/10/29 11:03:10;;;;;;;;;;;;;;;15.07;100.00;99310.25;5099080;27;19981;-73
2023/10/29 11:05:39;;;;;;;;;;;;;;;15.23;100.00;99310.28;5102948;27;19927;-73
2023/10/29 11:08:08;;;;;;;;;;;;;;;15.31;100.00;99314.81;5099558;27;20011;-76
2023/10/29 11:10:33;;;;;;;;;;;;;;;15.55;100.00;99317.56;5101625;27;19931;-73
2023/10/29 11:13:18;;;;;;;;;;;;;;;15.66;100.00;99324.47;5087219;27;19931;-73
2023/10/29 11:15:47;;;;;;;;;;;;;;;15.57;100.00;99323.63;5105212;27;19935;-73
2023/10/29 11:18:13;;;;;;;;;;;;;;;15.33;100.00;99327.09;5084018;27;19930;-73
2023/10/29 11:20:38;;;;;;;;;;;;;;;15.52;100.00;99317.91;5123555;27;19946;-73
2023/10/29 11:23:13;;;;;;;;;;;;;;;15.52;100.00;99323.28;5099294;27;19919;-73
2023/10/29 11:25:39;;;;;;;;;;;;;;;15.57;100.00;99317.41;5101117;27;19924;-73
2023/10/29 11:28:04;;;;;;;;;;;;;;;15.32;100.00;99319.22;5105777;27;20018;-73
2023/10/29 11:30:30;;;;;;;;;;;;;;;15.27;100.00;99325.09;5102878;27;19931;-73
2023/10/29 11:33:17;;;;;;;;;;;;;;;15.19;100.00;99320.50;5097450;27;20175;-73
2023/10/29 11:35:43;;;;;;;;;;;;;;;15.15;100.00;99319.16;5106817;27;19935;-75
2023/10/29 11:38:27;;;;;;;;;;;;;;;15.13;100.00;99317.66;5096491;27;19951;-75
2023/10/29 11:40:55;;;;;;;;;;;;;;;15.23;100.00;99318.34;5102804;27;20007;-74
2023/10/29 11:43:22;;;;;;;;;;;;;;;15.32;100.00;99314.69;5106904;27;19924;-74
2023/10/29 11:45:52;;;;;;;;;;;;;;;15.34;100.00;99301.06;5105765;27;19970;-74
2023/10/29 11:48:18;;;;;;;;;;;;;;;14.97;100.00;99300.50;5101002;27;20076;-74
2023/10/29 11:51:01;;;;;;;;;;;;;;;15.21;100.00;99298.88;5094638;27;19924;-74
2023/10/29 11:53:28;;;;;;;;;;;;;;;15.30;100.00;99295.19;5080418;27;20047;-74
2023/10/29 11:55:57;;;;;;;;;;;;;;;15.26;100.00;99297.38;5081157;27;19959;-74
2023/10/29 11:58:23;;;;;;;;;;;;;;;15.10;100.00;99286.59;5100122;27;20043;-75
2023/10/29 12:00:48;;;;;;;;;;;;;;;15.27;100.00;99285.63;5096393;27;19926;-74
2023/10/29 12:03:18;;;;;;;;;;;;;;;15.51;100.00;99271.38;5078307;27;20746;-75
2023/10/29 12:05:50;;;;;;;;;;;;;;;15.35;100.00;99274.03;5082341;27;20181;-75
2023/10/29 12:08:16;;;;;;;;;;;;;;;15.31;100.00;99269.16;5088437;27;19935;-74
2023/10/29 12:10:45;;;;;;;;;;;;;;;15.17;100.00;99266.16;5095394;27;19931;-74
2023/10/29 12:13:11;;;;;;;;;;;;;;;15.32;100.00;99254.75;5105371;27;21251;-75
2023/10/29 12:15:36;;;;;;;;;;;;;;;15.51;100.00;99251.72;5100426;27;19927;-74
2023/10/29 12:18:01;;;;;;;;;;;;;;;15.51;100.00;99251.72;5101807;27;19931;-74
2023/10/29 12:20:28;;;;;;;;;;;;;;;15.74;100.00;99254.59;5100281;27;20028;-74
2023/10/29 12:22:55;;;;;;;;;;;;;;;15.72;100.00;99251.25;5095150;27;19962;-74
2023/10/29 12:25:21;;;;;;;;;;;;;;;15.67;100.00;99243.72;5091067;27;19927;-74
2023/10/29 12:27:47;;;;;;;;;;;;;;;15.69;100.00;99263.19;5088402;27;20236;-75
2023/10/29 12:30:31;;;;;;;;;;;;;;;15.50;100.00;99248.19;5096097;27;19964;-74